Airfield :
LOGIN :

Register | Disclaimer

   EN    FR    IT 

 










Legend :    VFR   Marginal VFR   IFR   Intensive IFR   Very Intensive IFR
Visi :
Ceiling :
>= 8 km
>= 3000ft
5 to 8 km
1000 to 3000 ft
1500m to 5 km
500 to 1000 ft
800 to 1500m
200 to 500 ft
< 800m
< 200 ft
Symbols :   Thunderstorms  Fog  Heavy snow  Heavy precipitations  Wind > 20 kt
SIGMETs :     Misc.  Thunderstorms  Icing  Turbulence  Mountain Waves  Volcanic Ashes






- Airport Elevation : 1071 ft
- IATA code : LWO


UKLL - L'viv

CURRENT METAR :
  • 291800Z 26004MPS 230V300 CAVOK 02/M03 Q1004 R31/190070 NOSIG

EXPIRED METARs :
  • 291730Z 24005MPS CAVOK 02/M03 Q1003 R31/190070 NOSIG
  • 291700Z 24004MPS 9999 BKN048 02/M03 Q1003 R31/190070 NOSIG
  • 291630Z 24005MPS CAVOK 02/M02 Q1003 R31/190070 NOSIG
  • 291600Z 24005MPS 9999 OVC049 02/M02 Q1003 R31/190070 NOSIG
  • 291530Z 25004MPS 9999 SCT044CB BKN044 03/M02 Q1003 R31/190070 NOSIG

TAF TAF UKLL
Valid from the 29 at 18:00 until the 30 at 18:00 UTC


291709Z 2918/3018 25005G10MPS 3000 BR BKN007 TX03/3012Z TNM01/3003Z
TEMPO 2918/3009 28009G14MPS 0600 +SHSN BKN002 BKN017CB
TEMPO 3009/3018 29010G17MPS 1100 SHSNRA BKN003 BKN020CB



MET'MAP, your aeronautical weather chart ! - Copyright ORBIFLY December 2007 - Disclaimer

ORBIFLY MET'MAP TEAM :

Programming & Development : Alexandra Zaïnal
Concept & original design : Baudouin d'Aumeries
Assistance for programming : Marc-Olivier Méhu
Technical & hardware support : Manuel Goepfert

Contact : metmap@orbifly.com




SOURCES & CREDITS :

   NOAA